KDDC/DDC METAR and TAF weather

Enter ICAO airport designator
Station Type Date Time Source
KDDC METAR 2019/04/18 09:52 UTC NOAA

KDDC 180952Z AUTO 35009KT 10SM CLR 06/02 A2993 RMK AO2 SLP121 T00610022


Station Type Date Time Source
KDDC Decoded METAR 2019/04/18 09:52 UTC NOAA

DODGE CITY REGIONAL AIRPORT, KS, United States (KDDC) 37-46N 99-58W 789M
Apr 18, 2019 - 05:52 AM EDT / 2019.04.18 0952 UTC
Wind: from the N (350 degrees) at 10 MPH (9 KT):0
Visibility: 10 mile(s):0
Sky conditions: clear
Temperature: 43.0 F (6.1 C)
Dew Point: 36.0 F (2.2 C)
Relative Humidity: 76%
Pressure (altimeter): 29.93 in. Hg (1013 hPa)
ob: KDDC 180952Z AUTO 35009KT 10SM CLR 06/02 A2993 RMK AO2 SLP121 T00610022
cycle: 10

Station Type Date Time Source
KDDC TAF 2019/04/18 06:48 UTC NOAA

TAF KDDC 180544Z 1806/1906 03010G18KT P6SM FEW250
FM180900 36008KT P6SM SCT250
FM181400 33012G21KT P6SM SKC
FM181800 34022G31KT P6SM FEW250
FM190200 34011KT P6SM FEW200

Example: see airport list